sensor_id;sensor_type;location;lat;lon;timestamp;P1;P2;P0
21358;PMS7003;13506;50.852;20.632;2023-11-21T00:00:47;38.20;30.20;17.40
21358;PMS7003;13506;50.852;20.632;2023-11-21T00:03:35;35.20;32.20;20.20
21358;PMS7003;13506;50.852;20.632;2023-11-21T00:06:03;44.40;39.60;24.00
21358;PMS7003;13506;50.852;20.632;2023-11-21T00:08:34;51.20;43.40;26.60
21358;PMS7003;13506;50.852;20.632;2023-11-21T00:11:02;44.80;38.00;22.20
21358;PMS7003;13506;50.852;20.632;2023-11-21T00:13:31;48.60;40.00;24.40
21358;PMS7003;13506;50.852;20.632;2023-11-21T00:16:01;40.00;37.40;24.20
21358;PMS7003;13506;50.852;20.632;2023-11-21T00:18:29;38.00;36.00;20.75
21358;PMS7003;13506;50.852;20.632;2023-11-21T00:20:57;43.60;39.00;23.00
21358;PMS7003;13506;50.852;20.632;2023-11-21T00:23:25;35.40;30.60;20.00
21358;PMS7003;13506;50.852;20.632;2023-11-21T00:25:53;33.80;31.80;19.80
21358;PMS7003;13506;50.852;20.632;2023-11-21T00:28:21;42.40;34.00;20.60
21358;PMS7003;13506;50.852;20.632;2023-11-21T00:30:49;40.60;35.60;21.20
21358;PMS7003;13506;50.852;20.632;2023-11-21T00:33:18;38.40;33.60;21.20
21358;PMS7003;13506;50.852;20.632;2023-11-21T00:35:46;32.40;28.60;18.00
21358;PMS7003;13506;50.852;20.632;2023-11-21T00:38:14;40.60;33.20;20.40
21358;PMS7003;13506;50.852;20.632;2023-11-21T00:40:45;33.00;30.40;18.80
21358;PMS7003;13506;50.852;20.632;2023-11-21T00:43:13;42.80;35.40;18.80
21358;PMS7003;13506;50.852;20.632;2023-11-21T00:45:41;30.20;28.00;17.00
21358;PMS7003;13506;50.852;20.632;2023-11-21T00:48:09;31.40;29.40;19.60
21358;PMS7003;13506;50.852;20.632;2023-11-21T00:50:40;32.80;30.40;18.80
21358;PMS7003;13506;50.852;20.632;2023-11-21T00:53:08;38.80;31.00;17.60
21358;PMS7003;13506;50.852;20.632;2023-11-21T00:55:36;31.20;28.60;17.40
21358;PMS7003;13506;50.852;20.632;2023-11-21T00:58:05;38.40;30.60;16.00
21358;PMS7003;13506;50.852;20.632;2023-11-21T01:00:33;30.60;25.00;14.00
21358;PMS7003;13506;50.852;20.632;2023-11-21T01:03:01;28.00;23.00;15.40
21358;PMS7003;13506;50.852;20.632;2023-11-21T01:05:30;28.00;23.20;14.80
21358;PMS7003;13506;50.852;20.632;2023-11-21T01:07:59;28.40;25.00;14.60
21358;PMS7003;13506;50.852;20.632;2023-11-21T01:10:28;24.20;21.20;14.40
21358;PMS7003;13506;50.852;20.632;2023-11-21T01:12:55;28.20;25.20;14.40
21358;PMS7003;13506;50.852;20.632;2023-11-21T01:15:23;28.40;25.80;16.40
21358;PMS7003;13506;50.852;20.632;2023-11-21T01:17:51;34.50;27.00;16.75
21358;PMS7003;13506;50.852;20.632;2023-11-21T01:20:20;33.40;27.20;16.00
21358;PMS7003;13506;50.852;20.632;2023-11-21T01:22:48;36.40;32.00;17.60
21358;PMS7003;13506;50.852;20.632;2023-11-21T01:25:17;30.60;25.40;16.40
21358;PMS7003;13506;50.852;20.632;2023-11-21T01:27:46;35.80;31.20;19.00
21358;PMS7003;13506;50.852;20.632;2023-11-21T01:30:15;29.80;27.00;17.40
21358;PMS7003;13506;50.852;20.632;2023-11-21T01:32:44;32.60;27.80;16.00
21358;PMS7003;13506;50.852;20.632;2023-11-21T01:35:12;40.40;32.00;19.60
21358;PMS7003;13506;50.852;20.632;2023-11-21T01:37:39;30.80;28.80;15.40
21358;PMS7003;13506;50.852;20.632;2023-11-21T01:40:08;27.60;26.40;15.20
21358;PMS7003;13506;50.852;20.632;2023-11-21T01:42:40;30.00;26.80;17.00
21358;PMS7003;13506;50.852;20.632;2023-11-21T01:45:10;33.40;26.40;15.60
21358;PMS7003;13506;50.852;20.632;2023-11-21T01:47:38;29.40;25.00;16.00
21358;PMS7003;13506;50.852;20.632;2023-11-21T01:50:08;28.40;27.00;15.40
21358;PMS7003;13506;50.852;20.632;2023-11-21T01:52:40;31.80;25.00;13.60
21358;PMS7003;13506;50.852;20.632;2023-11-21T01:55:10;26.40;24.00;15.00
21358;PMS7003;13506;50.852;20.632;2023-11-21T01:57:38;27.60;21.20;13.00
21358;PMS7003;13506;50.852;20.632;2023-11-21T02:00:09;28.80;23.20;14.20
21358;PMS7003;13506;50.852;20.632;2023-11-21T02:02:42;27.60;23.20;14.60
21358;PMS7003;13506;50.852;20.632;2023-11-21T02:05:10;25.20;23.20;14.60
21358;PMS7003;13506;50.852;20.632;2023-11-21T02:07:39;30.60;24.00;13.40
21358;PMS7003;13506;50.852;20.632;2023-11-21T02:10:07;27.20;20.20;11.60
21358;PMS7003;13506;50.852;20.632;2023-11-21T02:12:35;21.80;19.40;11.40
21358;PMS7003;13506;50.852;20.632;2023-11-21T02:15:07;33.40;25.60;14.00
21358;PMS7003;13506;50.852;20.632;2023-11-21T02:17:40;21.40;17.80;11.20
21358;PMS7003;13506;50.852;20.632;2023-11-21T02:20:10;20.20;19.80;10.80
21358;PMS7003;13506;50.852;20.632;2023-11-21T02:22:42;26.00;24.40;13.80
21358;PMS7003;13506;50.852;20.632;2023-11-21T02:25:13;26.40;21.40;13.00
21358;PMS7003;13506;50.852;20.632;2023-11-21T02:27:41;29.80;22.60;12.80
21358;PMS7003;13506;50.852;20.632;2023-11-21T02:30:14;33.00;27.40;15.60
21358;PMS7003;13506;50.852;20.632;2023-11-21T02:32:42;22.60;21.00;14.00
21358;PMS7003;13506;50.852;20.632;2023-11-21T02:35:10;25.40;22.80;13.80
21358;PMS7003;13506;50.852;20.632;2023-11-21T02:37:37;25.60;20.40;13.60
21358;PMS7003;13506;50.852;20.632;2023-11-21T02:40:08;25.60;24.20;15.40
21358;PMS7003;13506;50.852;20.632;2023-11-21T02:42:39;29.60;26.20;15.60
21358;PMS7003;13506;50.852;20.632;2023-11-21T02:45:07;25.60;23.00;13.40
21358;PMS7003;13506;50.852;20.632;2023-11-21T02:47:38;20.80;20.60;11.20
21358;PMS7003;13506;50.852;20.632;2023-11-21T02:50:08;26.60;25.40;14.60
21358;PMS7003;13506;50.852;20.632;2023-11-21T02:52:36;22.00;21.20;11.00
21358;PMS7003;13506;50.852;20.632;2023-11-21T02:55:05;23.40;21.00;12.00
21358;PMS7003;13506;50.852;20.632;2023-11-21T02:57:33;19.40;17.60;9.00
21358;PMS7003;13506;50.852;20.632;2023-11-21T03:00:03;21.60;17.20;11.00
21358;PMS7003;13506;50.852;20.632;2023-11-21T03:02:33;22.00;20.20;10.60
21358;PMS7003;13506;50.852;20.632;2023-11-21T03:05:04;20.20;17.20;10.00
21358;PMS7003;13506;50.852;20.632;2023-11-21T03:07:36;17.00;15.40;9.20
21358;PMS7003;13506;50.852;20.632;2023-11-21T03:10:04;20.80;17.40;10.00
21358;PMS7003;13506;50.852;20.632;2023-11-21T03:12:34;19.20;17.60;10.20
21358;PMS7003;13506;50.852;20.632;2023-11-21T03:15:05;17.40;15.00;9.20
21358;PMS7003;13506;50.852;20.632;2023-11-21T03:17:33;21.60;17.00;9.00
21358;PMS7003;13506;50.852;20.632;2023-11-21T03:20:03;24.40;18.60;10.00
21358;PMS7003;13506;50.852;20.632;2023-11-21T03:22:36;16.80;16.00;10.00
21358;PMS7003;13506;50.852;20.632;2023-11-21T03:25:05;24.60;21.20;12.80
21358;PMS7003;13506;50.852;20.632;2023-11-21T03:27:36;30.40;24.60;14.00
21358;PMS7003;13506;50.852;20.632;2023-11-21T03:30:07;24.80;23.20;14.00
21358;PMS7003;13506;50.852;20.632;2023-11-21T03:32:36;28.00;24.80;13.80
21358;PMS7003;13506;50.852;20.632;2023-11-21T03:35:06;21.00;19.20;10.60
21358;PMS7003;13506;50.852;20.632;2023-11-21T03:37:34;19.60;17.60;10.40
21358;PMS7003;13506;50.852;20.632;2023-11-21T03:40:04;21.00;18.80;11.80
21358;PMS7003;13506;50.852;20.632;2023-11-21T03:42:33;23.60;20.40;10.60
21358;PMS7003;13506;50.852;20.632;2023-11-21T03:45:02;23.00;19.60;11.00
21358;PMS7003;13506;50.852;20.632;2023-11-21T03:47:31;20.00;17.40;10.60
21358;PMS7003;13506;50.852;20.632;2023-11-21T03:50:00;19.80;18.80;9.60
21358;PMS7003;13506;50.852;20.632;2023-11-21T03:52:28;19.40;16.40;10.20
21358;PMS7003;13506;50.852;20.632;2023-11-21T03:54:59;19.00;16.60;10.00
21358;PMS7003;13506;50.852;20.632;2023-11-21T03:57:28;22.60;17.20;10.20
21358;PMS7003;13506;50.852;20.632;2023-11-21T03:59:57;16.80;16.00;8.20
21358;PMS7003;13506;50.852;20.632;2023-11-21T04:02:24;20.00;18.20;9.80
21358;PMS7003;13506;50.852;20.632;2023-11-21T04:04:55;19.00;14.00;9.00
21358;PMS7003;13506;50.852;20.632;2023-11-21T04:07:23;18.40;16.00;9.40
21358;PMS7003;13506;50.852;20.632;2023-11-21T04:09:51;20.80;18.00;10.20
21358;PMS7003;13506;50.852;20.632;2023-11-21T04:12:19;16.80;15.00;9.20
21358;PMS7003;13506;50.852;20.632;2023-11-21T04:14:47;22.60;17.60;11.40
21358;PMS7003;13506;50.852;20.632;2023-11-21T04:17:17;20.00;16.40;9.40
21358;PMS7003;13506;50.852;20.632;2023-11-21T04:19:45;21.20;19.60;11.80
21358;PMS7003;13506;50.852;20.632;2023-11-21T04:22:15;23.40;19.20;10.80
21358;PMS7003;13506;50.852;20.632;2023-11-21T04:24:43;22.20;18.00;10.60
21358;PMS7003;13506;50.852;20.632;2023-11-21T04:27:11;27.00;24.40;15.60
21358;PMS7003;13506;50.852;20.632;2023-11-21T04:29:40;34.40;31.40;17.00
21358;PMS7003;13506;50.852;20.632;2023-11-21T04:32:07;43.60;39.20;24.40
21358;PMS7003;13506;50.852;20.632;2023-11-21T04:34:36;64.75;48.75;28.75
21358;PMS7003;13506;50.852;20.632;2023-11-21T04:37:04;35.60;29.00;16.60
21358;PMS7003;13506;50.852;20.632;2023-11-21T04:39:34;36.00;32.00;18.80
21358;PMS7003;13506;50.852;20.632;2023-11-21T04:42:02;52.80;41.00;24.00
21358;PMS7003;13506;50.852;20.632;2023-11-21T04:44:30;40.40;31.00;18.80
21358;PMS7003;13506;50.852;20.632;2023-11-21T04:46:58;31.80;28.60;15.80
21358;PMS7003;13506;50.852;20.632;2023-11-21T04:49:30;33.60;26.80;16.60
21358;PMS7003;13506;50.852;20.632;2023-11-21T04:51:57;29.00;23.60;14.60
21358;PMS7003;13506;50.852;20.632;2023-11-21T04:54:27;22.40;18.20;11.20
21358;PMS7003;13506;50.852;20.632;2023-11-21T04:56:57;23.40;22.40;13.40
21358;PMS7003;13506;50.852;20.632;2023-11-21T04:59:26;28.40;22.80;14.60
21358;PMS7003;13506;50.852;20.632;2023-11-21T05:01:53;29.40;25.20;15.00
21358;PMS7003;13506;50.852;20.632;2023-11-21T05:04:21;24.40;24.00;14.00
21358;PMS7003;13506;50.852;20.632;2023-11-21T05:06:49;22.80;21.20;12.00
21358;PMS7003;13506;50.852;20.632;2023-11-21T05:09:17;25.60;21.80;14.00
21358;PMS7003;13506;50.852;20.632;2023-11-21T05:11:45;23.60;20.00;12.40
21358;PMS7003;13506;50.852;20.632;2023-11-21T05:14:15;27.00;23.00;12.80
21358;PMS7003;13506;50.852;20.632;2023-11-21T05:16:44;23.80;18.00;9.80
21358;PMS7003;13506;50.852;20.632;2023-11-21T05:19:12;20.40;19.00;10.20
21358;PMS7003;13506;50.852;20.632;2023-11-21T05:21:39;21.40;19.80;10.80
21358;PMS7003;13506;50.852;20.632;2023-11-21T05:24:08;19.60;18.40;11.20
21358;PMS7003;13506;50.852;20.632;2023-11-21T05:26:35;22.20;19.00;10.20
21358;PMS7003;13506;50.852;20.632;2023-11-21T05:29:04;21.60;18.00;11.00
21358;PMS7003;13506;50.852;20.632;2023-11-21T05:31:33;24.60;21.20;12.60
21358;PMS7003;13506;50.852;20.632;2023-11-21T05:34:01;17.00;15.00;9.40
21358;PMS7003;13506;50.852;20.632;2023-11-21T05:36:30;24.00;19.60;11.80
21358;PMS7003;13506;50.852;20.632;2023-11-21T05:38:59;21.40;21.40;11.20
21358;PMS7003;13506;50.852;20.632;2023-11-21T05:41:29;26.20;20.80;11.00
21358;PMS7003;13506;50.852;20.632;2023-11-21T05:43:57;20.20;18.40;10.60
21358;PMS7003;13506;50.852;20.632;2023-11-21T05:46:24;25.60;21.60;11.60
21358;PMS7003;13506;50.852;20.632;2023-11-21T05:48:54;23.60;19.80;11.80
21358;PMS7003;13506;50.852;20.632;2023-11-21T05:51:22;20.40;17.60;12.40
21358;PMS7003;13506;50.852;20.632;2023-11-21T05:53:50;16.80;16.80;10.60
21358;PMS7003;13506;50.852;20.632;2023-11-21T05:56:18;19.20;18.00;11.00
21358;PMS7003;13506;50.852;20.632;2023-11-21T05:58:46;40.40;38.00;21.60
21358;PMS7003;13506;50.852;20.632;2023-11-21T06:01:14;45.00;38.00;24.60
21358;PMS7003;13506;50.852;20.632;2023-11-21T06:03:42;44.80;40.40;24.80
21358;PMS7003;13506;50.852;20.632;2023-11-21T06:06:12;26.20;18.40;10.00
21358;PMS7003;13506;50.852;20.632;2023-11-21T06:08:41;20.80;20.00;12.40
21358;PMS7003;13506;50.852;20.632;2023-11-21T06:11:09;23.20;18.80;12.40
21358;PMS7003;13506;50.852;20.632;2023-11-21T06:13:38;20.60;20.20;12.20
21358;PMS7003;13506;50.852;20.632;2023-11-21T06:16:06;26.40;21.60;13.80
21358;PMS7003;13506;50.852;20.632;2023-11-21T06:18:35;21.40;19.80;11.40
21358;PMS7003;13506;50.852;20.632;2023-11-21T06:21:03;17.20;15.60;9.80
21358;PMS7003;13506;50.852;20.632;2023-11-21T06:23:33;17.40;16.80;10.40
21358;PMS7003;13506;50.852;20.632;2023-11-21T06:26:01;23.60;18.20;9.40
21358;PMS7003;13506;50.852;20.632;2023-11-21T06:28:30;19.20;17.20;10.40
21358;PMS7003;13506;50.852;20.632;2023-11-21T06:30:58;15.20;14.00;9.00
21358;PMS7003;13506;50.852;20.632;2023-11-21T06:33:30;17.00;14.80;8.80
21358;PMS7003;13506;50.852;20.632;2023-11-21T06:35:58;17.80;17.20;9.60
21358;PMS7003;13506;50.852;20.632;2023-11-21T06:38:28;23.80;18.00;9.40
21358;PMS7003;13506;50.852;20.632;2023-11-21T06:40:58;21.00;18.80;10.00
21358;PMS7003;13506;50.852;20.632;2023-11-21T06:43:28;19.60;18.40;10.40
21358;PMS7003;13506;50.852;20.632;2023-11-21T06:45:56;24.40;19.00;11.00
21358;PMS7003;13506;50.852;20.632;2023-11-21T06:48:25;19.40;16.40;10.40
21358;PMS7003;13506;50.852;20.632;2023-11-21T06:50:52;24.60;22.60;13.60
21358;PMS7003;13506;50.852;20.632;2023-11-21T06:53:20;31.40;27.00;15.80
21358;PMS7003;13506;50.852;20.632;2023-11-21T06:55:48;23.00;18.80;11.00
21358;PMS7003;13506;50.852;20.632;2023-11-21T06:58:18;20.40;18.80;10.20
21358;PMS7003;13506;50.852;20.632;2023-11-21T07:00:45;21.40;16.60;10.60
21358;PMS7003;13506;50.852;20.632;2023-11-21T07:03:15;16.40;15.00;8.60
21358;PMS7003;13506;50.852;20.632;2023-11-21T07:05:44;24.60;18.40;9.40
21358;PMS7003;13506;50.852;20.632;2023-11-21T07:08:13;26.40;23.40;12.20
21358;PMS7003;13506;50.852;20.632;2023-11-21T07:10:41;26.80;22.40;12.20
21358;PMS7003;13506;50.852;20.632;2023-11-21T07:13:09;20.80;20.40;12.60
21358;PMS7003;13506;50.852;20.632;2023-11-21T07:15:39;26.80;21.60;13.80
21358;PMS7003;13506;50.852;20.632;2023-11-21T07:18:07;26.00;22.40;12.80
21358;PMS7003;13506;50.852;20.632;2023-11-21T07:20:35;25.80;21.60;13.00
21358;PMS7003;13506;50.852;20.632;2023-11-21T07:23:03;23.40;17.80;10.60
21358;PMS7003;13506;50.852;20.632;2023-11-21T07:25:31;18.80;15.00;8.40
21358;PMS7003;13506;50.852;20.632;2023-11-21T07:27:59;23.80;21.20;13.00
21358;PMS7003;13506;50.852;20.632;2023-11-21T07:30:27;21.00;16.60;9.00
21358;PMS7003;13506;50.852;20.632;2023-11-21T07:32:56;20.00;19.20;12.00
21358;PMS7003;13506;50.852;20.632;2023-11-21T07:35:25;24.60;19.80;9.80
21358;PMS7003;13506;50.852;20.632;2023-11-21T07:37:53;23.80;19.60;11.20
21358;PMS7003;13506;50.852;20.632;2023-11-21T07:40:21;25.00;20.40;10.40
21358;PMS7003;13506;50.852;20.632;2023-11-21T07:42:49;19.00;18.40;11.00
21358;PMS7003;13506;50.852;20.632;2023-11-21T07:45:17;29.00;22.80;12.60
21358;PMS7003;13506;50.852;20.632;2023-11-21T07:47:45;20.20;18.00;11.20
21358;PMS7003;13506;50.852;20.632;2023-11-21T07:50:14;27.40;27.20;15.80
21358;PMS7003;13506;50.852;20.632;2023-11-21T07:52:43;25.00;24.00;14.20
21358;PMS7003;13506;50.852;20.632;2023-11-21T07:55:11;24.40;21.40;14.80
21358;PMS7003;13506;50.852;20.632;2023-11-21T07:57:39;23.20;21.00;12.40
21358;PMS7003;13506;50.852;20.632;2023-11-21T08:00:08;26.20;23.00;14.60
21358;PMS7003;13506;50.852;20.632;2023-11-21T08:02:41;29.60;24.40;14.80
21358;PMS7003;13506;50.852;20.632;2023-11-21T08:05:11;22.60;19.60;11.60
21358;PMS7003;13506;50.852;20.632;2023-11-21T08:07:40;35.40;28.40;15.00
21358;PMS7003;13506;50.852;20.632;2023-11-21T08:10:08;29.80;26.40;14.20
21358;PMS7003;13506;50.852;20.632;2023-11-21T08:12:37;27.20;24.00;13.60
21358;PMS7003;13506;50.852;20.632;2023-11-21T08:15:05;23.60;21.60;15.00
21358;PMS7003;13506;50.852;20.632;2023-11-21T08:17:34;25.80;21.00;13.00
21358;PMS7003;13506;50.852;20.632;2023-11-21T08:20:02;35.60;24.40;16.00
21358;PMS7003;13506;50.852;20.632;2023-11-21T08:22:31;26.60;23.80;13.00
21358;PMS7003;13506;50.852;20.632;2023-11-21T08:25:01;25.80;20.60;12.40
21358;PMS7003;13506;50.852;20.632;2023-11-21T08:27:30;24.60;23.40;14.00
21358;PMS7003;13506;50.852;20.632;2023-11-21T08:29:58;24.00;18.40;10.60
21358;PMS7003;13506;50.852;20.632;2023-11-21T08:32:26;28.00;23.00;13.80
21358;PMS7003;13506;50.852;20.632;2023-11-21T08:34:55;24.00;19.00;9.40
21358;PMS7003;13506;50.852;20.632;2023-11-21T08:37:23;22.20;20.40;10.20
21358;PMS7003;13506;50.852;20.632;2023-11-21T08:39:52;25.00;20.40;13.40
21358;PMS7003;13506;50.852;20.632;2023-11-21T08:42:22;25.20;24.20;13.40
21358;PMS7003;13506;50.852;20.632;2023-11-21T08:44:50;26.20;23.80;13.00
21358;PMS7003;13506;50.852;20.632;2023-11-21T08:47:18;23.20;19.60;12.80
21358;PMS7003;13506;50.852;20.632;2023-11-21T08:49:45;19.20;17.80;10.00
21358;PMS7003;13506;50.852;20.632;2023-11-21T08:52:13;22.80;21.20;10.00
21358;PMS7003;13506;50.852;20.632;2023-11-21T08:54:42;21.20;21.20;12.20
21358;PMS7003;13506;50.852;20.632;2023-11-21T08:57:11;21.00;20.60;11.20
21358;PMS7003;13506;50.852;20.632;2023-11-21T08:59:40;22.40;19.40;11.00
21358;PMS7003;13506;50.852;20.632;2023-11-21T09:02:08;28.20;25.60;14.40
21358;PMS7003;13506;50.852;20.632;2023-11-21T09:04:36;25.60;22.60;14.40
21358;PMS7003;13506;50.852;20.632;2023-11-21T09:07:05;25.40;17.80;10.60
21358;PMS7003;13506;50.852;20.632;2023-11-21T09:09:32;21.60;20.20;12.60
21358;PMS7003;13506;50.852;20.632;2023-11-21T09:12:00;25.80;19.00;12.60
21358;PMS7003;13506;50.852;20.632;2023-11-21T09:14:28;25.40;19.80;11.00
21358;PMS7003;13506;50.852;20.632;2023-11-21T09:16:58;27.60;24.40;13.40
21358;PMS7003;13506;50.852;20.632;2023-11-21T09:19:26;22.80;21.20;13.00
21358;PMS7003;13506;50.852;20.632;2023-11-21T09:21:54;24.40;23.20;14.20
21358;PMS7003;13506;50.852;20.632;2023-11-21T09:24:22;27.20;23.00;14.20
21358;PMS7003;13506;50.852;20.632;2023-11-21T09:26:51;23.20;23.20;12.60
21358;PMS7003;13506;50.852;20.632;2023-11-21T09:29:19;28.60;24.20;13.80
21358;PMS7003;13506;50.852;20.632;2023-11-21T09:31:48;25.00;20.20;13.60
21358;PMS7003;13506;50.852;20.632;2023-11-21T09:34:18;29.40;28.00;15.60
21358;PMS7003;13506;50.852;20.632;2023-11-21T09:36:46;26.60;22.80;12.40
21358;PMS7003;13506;50.852;20.632;2023-11-21T09:39:14;28.00;22.80;12.20
21358;PMS7003;13506;50.852;20.632;2023-11-21T09:41:44;27.00;24.60;13.80
21358;PMS7003;13506;50.852;20.632;2023-11-21T09:44:17;22.20;20.80;11.60
21358;PMS7003;13506;50.852;20.632;2023-11-21T09:46:50;29.20;23.60;14.20
21358;PMS7003;13506;50.852;20.632;2023-11-21T09:49:22;31.40;27.00;14.40
21358;PMS7003;13506;50.852;20.632;2023-11-21T09:51:53;30.00;25.40;16.20
21358;PMS7003;13506;50.852;20.632;2023-11-21T09:54:22;27.20;24.80;14.60
21358;PMS7003;13506;50.852;20.632;2023-11-21T09:56:52;29.40;27.60;14.20
21358;PMS7003;13506;50.852;20.632;2023-11-21T09:59:20;27.40;20.40;12.20
21358;PMS7003;13506;50.852;20.632;2023-11-21T10:01:50;25.20;20.80;12.20
21358;PMS7003;13506;50.852;20.632;2023-11-21T10:04:17;26.00;23.20;13.80
21358;PMS7003;13506;50.852;20.632;2023-11-21T10:06:48;31.60;25.40;14.60
21358;PMS7003;13506;50.852;20.632;2023-11-21T10:09:18;28.80;23.80;12.00
21358;PMS7003;13506;50.852;20.632;2023-11-21T10:11:47;27.80;25.00;13.20
21358;PMS7003;13506;50.852;20.632;2023-11-21T10:14:17;31.20;27.60;16.80
21358;PMS7003;13506;50.852;20.632;2023-11-21T10:16:51;29.20;26.80;14.60
21358;PMS7003;13506;50.852;20.632;2023-11-21T10:19:20;23.40;20.20;13.80
21358;PMS7003;13506;50.852;20.632;2023-11-21T10:21:51;31.00;24.80;14.00
21358;PMS7003;13506;50.852;20.632;2023-11-21T10:24:19;26.40;22.40;12.80
21358;PMS7003;13506;50.852;20.632;2023-11-21T10:26:48;34.00;29.00;17.60
21358;PMS7003;13506;50.852;20.632;2023-11-21T10:29:17;35.20;24.60;13.00
21358;PMS7003;13506;50.852;20.632;2023-11-21T10:31:48;35.00;30.60;19.00
21358;PMS7003;13506;50.852;20.632;2023-11-21T10:34:18;41.60;37.80;22.40
21358;PMS7003;13506;50.852;20.632;2023-11-21T10:36:47;27.40;23.40;14.00
21358;PMS7003;13506;50.852;20.632;2023-11-21T10:39:16;27.80;24.60;14.80
21358;PMS7003;13506;50.852;20.632;2023-11-21T10:41:45;28.00;21.00;12.80
21358;PMS7003;13506;50.852;20.632;2023-11-21T10:44:13;40.00;27.40;15.40
21358;PMS7003;13506;50.852;20.632;2023-11-21T10:46:46;36.60;30.60;17.00
21358;PMS7003;13506;50.852;20.632;2023-11-21T10:49:16;31.60;26.80;16.80
21358;PMS7003;13506;50.852;20.632;2023-11-21T10:51:45;26.60;26.20;14.80
21358;PMS7003;13506;50.852;20.632;2023-11-21T10:54:18;25.20;22.00;14.60
21358;PMS7003;13506;50.852;20.632;2023-11-21T10:56:48;29.00;23.60;14.20
21358;PMS7003;13506;50.852;20.632;2023-11-21T10:59:18;27.40;24.40;14.00
21358;PMS7003;13506;50.852;20.632;2023-11-21T11:01:50;27.80;25.60;12.80
21358;PMS7003;13506;50.852;20.632;2023-11-21T11:04:19;35.80;26.40;14.60
21358;PMS7003;13506;50.852;20.632;2023-11-21T11:06:49;27.20;19.40;11.00
21358;PMS7003;13506;50.852;20.632;2023-11-21T11:09:23;22.20;21.00;11.20
21358;PMS7003;13506;50.852;20.632;2023-11-21T11:11:51;27.20;22.20;12.00
21358;PMS7003;13506;50.852;20.632;2023-11-21T11:14:19;33.40;28.40;16.60
21358;PMS7003;13506;50.852;20.632;2023-11-21T11:16:53;25.00;21.60;11.20
21358;PMS7003;13506;50.852;20.632;2023-11-21T11:19:22;26.80;19.40;9.20
21358;PMS7003;13506;50.852;20.632;2023-11-21T11:21:53;28.60;25.00;13.40
21358;PMS7003;13506;50.852;20.632;2023-11-21T11:24:36;21.40;19.00;11.20
21358;PMS7003;13506;50.852;20.632;2023-11-21T11:27:30;25.20;19.40;9.00
21358;PMS7003;13506;50.852;20.632;2023-11-21T11:30:11;23.20;21.20;12.20
21358;PMS7003;13506;50.852;20.632;2023-11-21T11:32:53;25.40;22.40;11.80
21358;PMS7003;13506;50.852;20.632;2023-11-21T11:35:30;25.20;18.00;11.60
21358;PMS7003;13506;50.852;20.632;2023-11-21T11:38:09;22.20;18.20;10.00
21358;PMS7003;13506;50.852;20.632;2023-11-21T11:40:41;21.80;19.20;11.80
21358;PMS7003;13506;50.852;20.632;2023-11-21T11:43:12;23.80;20.20;12.80
21358;PMS7003;13506;50.852;20.632;2023-11-21T11:45:51;20.00;15.00;9.40
21358;PMS7003;13506;50.852;20.632;2023-11-21T11:48:22;18.40;18.40;10.00
21358;PMS7003;13506;50.852;20.632;2023-11-21T11:51:03;21.00;16.20;10.60
21358;PMS7003;13506;50.852;20.632;2023-11-21T11:53:37;19.80;17.20;10.00
21358;PMS7003;13506;50.852;20.632;2023-11-21T11:56:21;17.80;16.20;10.20
21358;PMS7003;13506;50.852;20.632;2023-11-21T11:58:52;20.60;17.60;10.40
21358;PMS7003;13506;50.852;20.632;2023-11-21T12:01:22;20.20;17.00;9.60
21358;PMS7003;13506;50.852;20.632;2023-11-21T12:06:56;23.80;17.80;11.20
21358;PMS7003;13506;50.852;20.632;2023-11-21T12:09:29;20.60;20.60;11.60
21358;PMS7003;13506;50.852;20.632;2023-11-21T12:11:59;21.60;18.40;12.40
21358;PMS7003;13506;50.852;20.632;2023-11-21T12:14:28;15.00;14.60;9.40
21358;PMS7003;13506;50.852;20.632;2023-11-21T12:16:58;20.80;17.20;10.20
21358;PMS7003;13506;50.852;20.632;2023-11-21T12:19:28;22.40;19.00;11.00
21358;PMS7003;13506;50.852;20.632;2023-11-21T12:21:56;22.20;16.20;9.40
21358;PMS7003;13506;50.852;20.632;2023-11-21T12:24:24;24.80;20.40;10.80
21358;PMS7003;13506;50.852;20.632;2023-11-21T12:26:54;26.60;23.00;13.00
21358;PMS7003;13506;50.852;20.632;2023-11-21T12:29:23;26.80;24.40;15.00
21358;PMS7003;13506;50.852;20.632;2023-11-21T12:31:51;34.60;24.00;11.80
21358;PMS7003;13506;50.852;20.632;2023-11-21T12:34:19;19.60;17.80;9.80
21358;PMS7003;13506;50.852;20.632;2023-11-21T12:36:49;23.00;19.00;12.20
21358;PMS7003;13506;50.852;20.632;2023-11-21T12:39:20;19.60;17.80;10.00
21358;PMS7003;13506;50.852;20.632;2023-11-21T12:41:48;22.00;19.40;10.00
21358;PMS7003;13506;50.852;20.632;2023-11-21T12:44:16;24.00;21.40;13.00
21358;PMS7003;13506;50.852;20.632;2023-11-21T12:46:46;20.40;18.60;10.00
21358;PMS7003;13506;50.852;20.632;2023-11-21T12:49:14;26.20;21.60;13.40
21358;PMS7003;13506;50.852;20.632;2023-11-21T12:51:44;25.60;22.40;11.20
21358;PMS7003;13506;50.852;20.632;2023-11-21T12:54:12;25.20;25.00;11.60
21358;PMS7003;13506;50.852;20.632;2023-11-21T12:56:41;28.20;21.40;13.40
21358;PMS7003;13506;50.852;20.632;2023-11-21T12:59:13;26.00;21.40;13.00
21358;PMS7003;13506;50.852;20.632;2023-11-21T13:01:43;29.20;23.80;14.20
21358;PMS7003;13506;50.852;20.632;2023-11-21T13:04:14;28.40;23.60;13.00
21358;PMS7003;13506;50.852;20.632;2023-11-21T13:06:44;24.40;21.80;11.00
21358;PMS7003;13506;50.852;20.632;2023-11-21T13:09:12;40.40;33.60;21.20
21358;PMS7003;13506;50.852;20.632;2023-11-21T13:11:46;32.20;23.80;13.60
21358;PMS7003;13506;50.852;20.632;2023-11-21T13:14:15;21.00;20.00;11.00
21358;PMS7003;13506;50.852;20.632;2023-11-21T13:16:43;24.80;19.60;10.00
21358;PMS7003;13506;50.852;20.632;2023-11-21T13:19:12;28.40;24.00;12.40
21358;PMS7003;13506;50.852;20.632;2023-11-21T13:21:40;25.40;20.40;13.00
21358;PMS7003;13506;50.852;20.632;2023-11-21T13:24:08;23.20;22.00;13.60
21358;PMS7003;13506;50.852;20.632;2023-11-21T13:26:36;27.00;22.00;15.40
21358;PMS7003;13506;50.852;20.632;2023-11-21T13:29:04;28.00;26.40;15.40
21358;PMS7003;13506;50.852;20.632;2023-11-21T13:31:32;31.60;28.40;14.20
21358;PMS7003;13506;50.852;20.632;2023-11-21T13:34:04;20.80;19.00;11.60
21358;PMS7003;13506;50.852;20.632;2023-11-21T13:36:34;26.00;20.20;12.00
21358;PMS7003;13506;50.852;20.632;2023-11-21T13:39:02;27.60;25.80;12.60
21358;PMS7003;13506;50.852;20.632;2023-11-21T13:41:33;23.40;20.80;12.00
21358;PMS7003;13506;50.852;20.632;2023-11-21T13:44:03;24.40;24.20;14.80
21358;PMS7003;13506;50.852;20.632;2023-11-21T13:46:41;25.60;22.80;12.20
21358;PMS7003;13506;50.852;20.632;2023-11-21T13:49:12;22.00;21.40;12.40